createdAt,value
2023-05-17T00:02:06.474Z,8.13
2023-05-17T00:04:33.936Z,8.00
2023-05-17T00:07:00.683Z,7.68
2023-05-17T00:09:27.516Z,7.67
2023-05-17T00:11:54.285Z,7.71
2023-05-17T00:14:21.036Z,7.56
2023-05-17T00:16:47.699Z,7.57
2023-05-17T00:19:14.554Z,7.53
2023-05-17T00:21:41.626Z,7.34
2023-05-17T00:24:09.313Z,7.23
2023-05-17T00:26:36.676Z,7.04
2023-05-17T00:29:04.771Z,6.73
2023-05-17T00:31:32.794Z,6.69
2023-05-17T00:34:00.681Z,6.67
2023-05-17T00:36:27.439Z,6.43
2023-05-17T00:38:54.074Z,6.42
2023-05-17T00:41:20.788Z,6.28
2023-05-17T00:43:47.429Z,6.03
2023-05-17T00:46:14.279Z,6.04
2023-05-17T00:48:41.084Z,5.71
2023-05-17T00:51:09.011Z,5.63
2023-05-17T00:53:37.388Z,5.67
2023-05-17T00:56:04.990Z,5.46
2023-05-17T00:58:31.800Z,5.53
2023-05-17T01:00:59.669Z,5.59
2023-05-17T01:03:26.594Z,5.44
2023-05-17T01:05:53.661Z,5.54
2023-05-17T01:08:21.907Z,5.42
2023-05-17T01:10:59.761Z,5.41
2023-05-17T01:13:40.882Z,5.47
2023-05-17T01:16:31.350Z,5.22
2023-05-17T01:19:16.168Z,5.25
2023-05-17T01:22:01.254Z,5.06
2023-05-17T01:24:30.469Z,4.92
2023-05-17T01:27:00.201Z,4.93
2023-05-17T01:29:30.405Z,4.71
2023-05-17T01:31:59.677Z,4.67
2023-05-17T01:34:27.483Z,4.61
2023-05-17T01:36:54.314Z,4.41
2023-05-17T01:39:21.296Z,4.39
2023-05-17T01:42:00.745Z,4.31
2023-05-17T01:44:43.683Z,4.03
2023-05-17T01:47:20.218Z,4.15
2023-05-17T01:49:52.405Z,4.00
2023-05-17T01:52:29.687Z,3.97
2023-05-17T01:55:33.545Z,3.99
2023-05-17T01:58:03.904Z,3.79
2023-05-17T02:00:31.091Z,3.90
2023-05-17T02:02:57.811Z,3.66
2023-05-17T02:05:24.604Z,3.58
2023-05-17T02:07:51.301Z,3.68
2023-05-17T02:10:18.655Z,3.53
2023-05-17T02:12:45.980Z,3.57
2023-05-17T02:15:15.125Z,3.59
2023-05-17T02:17:41.909Z,3.40
2023-05-17T02:20:12.026Z,3.43
2023-05-17T02:22:39.085Z,3.41
2023-05-17T02:25:06.854Z,3.30
2023-05-17T02:27:33.555Z,3.42
2023-05-17T02:30:02.111Z,3.25
2023-05-17T02:32:29.300Z,3.12
2023-05-17T02:34:56.534Z,3.22
2023-05-17T02:37:23.263Z,3.02
2023-05-17T02:39:49.943Z,3.00
2023-05-17T02:42:16.632Z,3.07
2023-05-17T02:44:44.399Z,2.90
2023-05-17T02:47:11.122Z,2.85
2023-05-17T02:49:39.314Z,2.92
2023-05-17T02:52:06.769Z,2.76
2023-05-17T02:54:33.881Z,2.79
2023-05-17T02:57:02.399Z,2.87
2023-05-17T02:59:30.430Z,2.77
2023-05-17T03:01:57.092Z,2.82
2023-05-17T03:04:23.765Z,2.88
2023-05-17T03:06:51.025Z,2.72
2023-05-17T03:09:17.882Z,2.74
2023-05-17T03:11:44.961Z,2.81
2023-05-17T03:14:11.582Z,2.70
2023-05-17T03:16:38.373Z,2.74
2023-05-17T03:19:05.262Z,2.81
2023-05-17T03:21:33.537Z,2.70
2023-05-17T03:24:00.190Z,2.73
2023-05-17T03:26:29.254Z,2.78
2023-05-17T03:28:55.941Z,2.69
2023-05-17T03:31:22.633Z,2.71
2023-05-17T03:33:49.462Z,2.80
2023-05-17T03:36:16.198Z,2.68
2023-05-17T03:38:44.308Z,2.72
2023-05-17T03:41:11.890Z,2.83
2023-05-17T03:43:38.565Z,2.72
2023-05-17T03:46:05.218Z,2.77
2023-05-17T03:48:33.811Z,2.83
2023-05-17T03:51:02.721Z,2.69
2023-05-17T03:53:30.008Z,2.72
2023-05-17T03:55:57.804Z,2.78
2023-05-17T03:58:24.531Z,2.64
2023-05-17T04:00:51.409Z,2.68
2023-05-17T04:03:20.167Z,2.81
2023-05-17T04:05:47.170Z,2.73
2023-05-17T04:08:13.858Z,2.72
2023-05-17T04:10:43.532Z,2.86
2023-05-17T04:13:11.739Z,2.76
2023-05-17T04:15:38.381Z,2.78
2023-05-17T04:18:06.669Z,2.86
2023-05-17T04:20:34.786Z,2.76
2023-05-17T04:23:01.769Z,2.82
2023-05-17T04:25:29.099Z,2.90
2023-05-17T04:27:58.775Z,2.79
2023-05-17T04:30:25.928Z,2.81
2023-05-17T04:32:52.596Z,2.92
2023-05-17T04:35:19.351Z,2.77
2023-05-17T04:37:46.000Z,2.78
2023-05-17T04:40:14.529Z,2.93
2023-05-17T04:42:41.384Z,2.91
2023-05-17T04:45:08.454Z,2.91
2023-05-17T04:47:35.496Z,3.03
2023-05-17T04:50:06.201Z,3.00
2023-05-17T04:52:33.360Z,3.00
2023-05-17T04:55:00.205Z,3.12
2023-05-17T04:57:26.922Z,3.05
2023-05-17T04:59:53.561Z,3.04
2023-05-17T05:02:20.285Z,3.20
2023-05-17T05:04:47.128Z,3.11
2023-05-17T05:07:13.841Z,3.09
2023-05-17T05:09:40.538Z,3.25
2023-05-17T05:12:07.609Z,3.07
2023-05-17T05:14:34.237Z,3.11
2023-05-17T05:17:01.109Z,3.23
2023-05-17T05:19:27.782Z,3.09
2023-05-17T05:21:55.886Z,3.19
2023-05-17T05:24:22.533Z,3.20
2023-05-17T05:26:50.370Z,3.08
2023-05-17T05:29:19.040Z,3.21
2023-05-17T05:31:46.400Z,3.20
2023-05-17T05:34:14.196Z,3.11
2023-05-17T05:36:43.589Z,3.26
2023-05-17T05:39:10.426Z,3.24
2023-05-17T05:41:37.060Z,3.13
2023-05-17T05:44:03.891Z,3.23
2023-05-17T05:46:30.726Z,3.17
2023-05-17T05:48:57.458Z,3.20
2023-05-17T05:51:24.697Z,3.28
2023-05-17T05:53:51.445Z,3.13
2023-05-17T05:56:18.109Z,3.12
2023-05-17T05:58:46.403Z,3.22
2023-05-17T06:01:13.063Z,3.04
2023-05-17T06:03:39.751Z,3.11
2023-05-17T06:06:06.602Z,3.19
2023-05-17T06:08:33.342Z,3.07
2023-05-17T06:11:02.066Z,3.05
2023-05-17T06:13:30.055Z,3.15
2023-05-17T06:15:56.745Z,3.04
2023-05-17T06:18:24.861Z,3.14
2023-05-17T06:20:52.791Z,3.18
2023-05-17T06:23:19.534Z,3.12
2023-05-17T06:25:46.365Z,3.21
2023-05-17T06:28:13.002Z,3.24
2023-05-17T06:30:39.632Z,3.11
2023-05-17T06:33:06.507Z,3.17
2023-05-17T06:35:43.786Z,3.19
2023-05-17T06:38:19.891Z,3.15
2023-05-17T06:40:46.602Z,3.30
2023-05-17T06:43:14.640Z,3.32
2023-05-17T06:45:41.291Z,3.22
2023-05-17T06:48:09.498Z,3.36
2023-05-17T06:50:36.410Z,3.36
2023-05-17T06:53:05.605Z,3.33
2023-05-17T06:55:32.778Z,3.49
2023-05-17T06:58:01.540Z,3.53
2023-05-17T07:00:30.431Z,3.56
2023-05-17T07:02:57.588Z,3.79
2023-05-17T07:05:25.704Z,3.80
2023-05-17T07:07:53.803Z,3.86
2023-05-17T07:10:20.657Z,4.13
2023-05-17T07:12:48.334Z,4.22
2023-05-17T07:15:15.137Z,4.26
2023-05-17T07:17:41.861Z,4.32
2023-05-17T07:20:09.488Z,4.24
2023-05-17T07:22:37.450Z,4.33
2023-05-17T07:25:05.411Z,4.35
2023-05-17T07:27:32.182Z,4.30
2023-05-17T07:29:58.940Z,4.42
2023-05-17T07:32:25.714Z,4.41
2023-05-17T07:34:52.423Z,4.43
2023-05-17T07:37:19.138Z,4.61
2023-05-17T07:39:45.862Z,4.57
2023-05-17T07:42:13.328Z,4.62
2023-05-17T07:44:39.949Z,4.61
2023-05-17T07:47:07.775Z,4.54
2023-05-17T07:49:35.822Z,4.58
2023-05-17T07:52:03.192Z,4.79
2023-05-17T07:54:32.329Z,4.74
2023-05-17T07:56:59.779Z,4.82
2023-05-17T07:59:27.773Z,4.91
2023-05-17T08:01:54.621Z,4.81
2023-05-17T08:04:21.376Z,4.92
2023-05-17T08:06:48.603Z,5.14
2023-05-17T08:09:16.613Z,5.16
2023-05-17T08:11:47.775Z,5.27
2023-05-17T08:14:18.364Z,5.36
2023-05-17T08:16:46.745Z,5.25
2023-05-17T08:19:15.181Z,5.35
2023-05-17T08:21:42.990Z,5.58
2023-05-17T08:24:10.211Z,5.46
2023-05-17T08:26:37.121Z,5.50
2023-05-17T08:29:06.119Z,5.67
2023-05-17T08:31:34.687Z,5.55
2023-05-17T08:34:02.758Z,5.73
2023-05-17T08:36:29.481Z,5.74
2023-05-17T08:38:56.118Z,5.73
2023-05-17T08:41:22.990Z,5.87
2023-05-17T08:43:51.035Z,5.93
2023-05-17T08:46:21.789Z,5.84
2023-05-17T08:48:52.125Z,5.82
2023-05-17T08:51:23.370Z,5.77
2023-05-17T08:53:50.790Z,5.71
2023-05-17T08:56:19.604Z,5.68
2023-05-17T08:58:56.632Z,5.73
2023-05-17T09:01:26.537Z,5.74
2023-05-17T09:03:54.549Z,5.81
2023-05-17T09:06:22.883Z,6.00
2023-05-17T09:08:55.086Z,5.87
2023-05-17T09:11:30.119Z,5.78
2023-05-17T09:14:05.533Z,5.95
2023-05-17T09:16:35.128Z,6.08
2023-05-17T09:19:05.485Z,5.99
2023-05-17T09:21:32.826Z,6.12
2023-05-17T09:24:07.303Z,6.23
2023-05-17T09:26:43.668Z,6.25
2023-05-17T09:29:12.561Z,6.35
2023-05-17T09:31:42.547Z,6.58
2023-05-17T09:34:09.636Z,6.58
2023-05-17T09:36:37.893Z,6.71
2023-05-17T09:39:06.855Z,6.84
2023-05-17T09:41:42.408Z,6.96
2023-05-17T09:44:11.354Z,7.14
2023-05-17T09:46:48.078Z,7.33
2023-05-17T09:49:16.912Z,7.22
2023-05-17T09:51:47.226Z,7.33
2023-05-17T09:54:14.184Z,7.23
2023-05-17T09:56:42.697Z,7.22
2023-05-17T09:59:16.324Z,7.37
2023-05-17T10:01:47.704Z,7.30
2023-05-17T10:04:20.512Z,7.31
2023-05-17T10:06:52.235Z,7.45
2023-05-17T10:09:22.754Z,7.48
2023-05-17T10:11:53.475Z,7.38
2023-05-17T10:14:32.004Z,7.63
2023-05-17T10:17:00.288Z,7.53
2023-05-17T10:19:27.439Z,7.50
2023-05-17T10:21:56.629Z,7.71
2023-05-17T10:24:25.264Z,7.71
2023-05-17T10:26:52.519Z,7.79
2023-05-17T10:29:22.445Z,8.03
2023-05-17T10:31:53.716Z,7.91
2023-05-17T10:34:20.723Z,8.03
2023-05-17T10:36:50.999Z,8.11
2023-05-17T10:39:18.830Z,8.13
2023-05-17T10:41:48.681Z,8.04
2023-05-17T10:44:17.744Z,8.21
2023-05-17T10:46:58.340Z,8.17
2023-05-17T10:49:33.796Z,8.24
2023-05-17T10:52:23.821Z,8.42
2023-05-17T10:54:51.026Z,8.43
2023-05-17T10:57:21.557Z,8.58
2023-05-17T10:59:59.447Z,8.52
2023-05-17T11:02:27.770Z,8.44
2023-05-17T11:04:56.656Z,8.60
2023-05-17T11:07:32.682Z,8.55
2023-05-17T11:10:06.168Z,8.74
2023-05-17T11:12:39.439Z,8.79
2023-05-17T11:15:18.857Z,8.93
2023-05-17T11:17:51.150Z,9.15
2023-05-17T11:20:25.442Z,9.10
2023-05-17T11:23:01.087Z,9.25
2023-05-17T11:25:32.655Z,9.18
2023-05-17T11:27:59.862Z,9.16
2023-05-17T11:30:31.286Z,9.35
2023-05-17T11:33:00.724Z,9.43
2023-05-17T11:35:38.858Z,9.69
2023-05-17T11:38:24.127Z,9.86
2023-05-17T11:40:55.996Z,10.00
2023-05-17T11:43:24.253Z,9.98
2023-05-17T11:45:54.048Z,9.82
2023-05-17T11:48:26.171Z,9.86
2023-05-17T11:50:55.373Z,9.81
2023-05-17T11:53:23.168Z,9.98
2023-05-17T11:55:51.880Z,9.99
2023-05-17T11:58:28.064Z,9.97
2023-05-17T12:01:00.563Z,10.16
2023-05-17T12:03:29.275Z,10.16
2023-05-17T12:06:06.366Z,10.28
2023-05-17T12:08:34.986Z,10.32
2023-05-17T12:11:02.694Z,10.42
2023-05-17T12:13:30.385Z,10.63
2023-05-17T12:16:02.204Z,10.68
2023-05-17T12:18:40.746Z,10.98
2023-05-17T12:21:09.060Z,11.07
2023-05-17T12:23:36.862Z,11.13
2023-05-17T12:26:09.596Z,11.07
2023-05-17T12:28:38.253Z,11.19
2023-05-17T12:31:08.495Z,11.24
2023-05-17T12:33:40.787Z,10.98
2023-05-17T12:36:09.159Z,11.39
2023-05-17T12:38:39.475Z,11.64
2023-05-17T12:41:08.469Z,11.77
2023-05-17T12:43:37.301Z,11.97
2023-05-17T12:46:15.135Z,12.29
2023-05-17T12:48:43.508Z,12.33
2023-05-17T12:51:15.173Z,12.30
2023-05-17T12:53:57.222Z,12.29
2023-05-17T12:56:28.425Z,12.31
2023-05-17T12:59:18.729Z,12.12
2023-05-17T13:01:47.367Z,12.02
2023-05-17T13:04:16.250Z,11.71
2023-05-17T13:07:00.301Z,11.67
2023-05-17T13:09:32.475Z,11.51
2023-05-17T13:12:05.956Z,11.53
2023-05-17T13:14:41.146Z,11.53
2023-05-17T13:17:16.798Z,11.48
2023-05-17T13:19:43.565Z,11.64
2023-05-17T13:22:10.586Z,11.64
2023-05-17T13:24:41.113Z,11.80
2023-05-17T13:27:10.230Z,11.82
2023-05-17T13:29:40.678Z,11.94
2023-05-17T13:32:08.429Z,12.11
2023-05-17T13:34:36.110Z,11.98
2023-05-17T13:37:03.388Z,11.83
2023-05-17T13:39:30.084Z,11.18
2023-05-17T13:41:57.130Z,10.48
2023-05-17T13:44:25.078Z,10.05
2023-05-17T13:46:51.802Z,9.67
2023-05-17T13:49:18.977Z,9.76
2023-05-17T13:51:46.565Z,9.44
2023-05-17T13:54:13.237Z,9.50
2023-05-17T13:56:41.042Z,9.85
2023-05-17T13:59:07.687Z,10.15
2023-05-17T14:01:35.636Z,10.52
2023-05-17T14:04:02.423Z,10.56
2023-05-17T14:06:29.355Z,10.38
2023-05-17T14:08:57.240Z,9.18
2023-05-17T14:11:23.997Z,8.68
2023-05-17T14:13:50.689Z,8.83
2023-05-17T14:16:18.812Z,8.83
2023-05-17T14:18:47.790Z,9.06
2023-05-17T14:21:15.646Z,9.06
2023-05-17T14:23:42.273Z,8.53
2023-05-17T14:26:10.632Z,8.37
2023-05-17T14:28:39.179Z,7.99
2023-05-17T14:31:08.261Z,7.98
2023-05-17T14:33:35.210Z,8.08
2023-05-17T14:36:05.091Z,8.04
2023-05-17T14:38:31.973Z,8.26
2023-05-17T14:41:01.001Z,8.38
2023-05-17T14:43:28.221Z,8.50
2023-05-17T14:45:54.941Z,8.69
2023-05-17T14:48:21.816Z,8.66
2023-05-17T14:50:48.573Z,8.83
2023-05-17T14:53:16.598Z,9.00
2023-05-17T14:55:44.890Z,9.11
2023-05-17T14:58:15.969Z,9.26
2023-05-17T15:00:48.353Z,9.21
2023-05-17T15:03:19.462Z,9.34
2023-05-17T15:05:53.957Z,9.51
2023-05-17T15:08:21.790Z,9.86
2023-05-17T15:10:53.122Z,10.32
2023-05-17T15:13:19.959Z,10.57
2023-05-17T15:15:46.923Z,10.78
2023-05-17T15:18:16.511Z,10.75
2023-05-17T15:20:43.525Z,10.65
2023-05-17T15:23:11.387Z,10.57
2023-05-17T15:25:38.137Z,10.35
2023-05-17T15:28:06.441Z,10.38
2023-05-17T15:30:33.171Z,10.11
2023-05-17T15:33:01.396Z,10.03
2023-05-17T15:35:29.042Z,10.04
2023-05-17T15:37:58.616Z,9.88
2023-05-17T15:40:25.473Z,10.03
2023-05-17T15:42:52.676Z,10.04
2023-05-17T15:45:22.742Z,10.03
2023-05-17T15:47:49.600Z,10.14
2023-05-17T15:50:18.179Z,10.16
2023-05-17T15:52:47.353Z,10.40
2023-05-17T15:55:14.149Z,10.43
2023-05-17T15:57:42.694Z,10.44
2023-05-17T16:00:10.357Z,10.60
2023-05-17T16:02:37.091Z,10.91
2023-05-17T16:05:04.466Z,11.20
2023-05-17T16:07:31.376Z,11.12
2023-05-17T16:09:58.116Z,11.16
2023-05-17T16:12:24.874Z,11.12
2023-05-17T16:14:52.055Z,10.82
2023-05-17T16:17:18.950Z,11.03
2023-05-17T16:19:45.804Z,11.15
2023-05-17T16:22:13.289Z,11.30
2023-05-17T16:24:41.934Z,11.50
2023-05-17T16:27:10.058Z,11.63
2023-05-17T16:29:40.032Z,11.79
2023-05-17T16:32:09.526Z,11.60
2023-05-17T16:34:36.726Z,11.51
2023-05-17T16:37:05.614Z,11.21
2023-05-17T16:39:34.007Z,11.04
2023-05-17T16:42:00.799Z,10.92
2023-05-17T16:44:27.508Z,10.67
2023-05-17T16:46:54.287Z,10.69
2023-05-17T16:49:20.982Z,10.53
2023-05-17T16:51:49.991Z,10.44
2023-05-17T16:54:17.144Z,10.52
2023-05-17T16:56:45.265Z,10.33
2023-05-17T16:59:12.289Z,10.27
2023-05-17T17:01:39.288Z,10.31
2023-05-17T17:04:06.277Z,10.14
2023-05-17T17:06:34.028Z,10.15
2023-05-17T17:09:01.639Z,10.16
2023-05-17T17:11:28.376Z,10.01
2023-05-17T17:13:55.162Z,10.03
2023-05-17T17:16:21.886Z,10.04
2023-05-17T17:18:49.805Z,9.89
2023-05-17T17:21:18.794Z,9.87
2023-05-17T17:23:46.091Z,9.84
2023-05-17T17:26:14.033Z,9.76
2023-05-17T17:28:40.947Z,9.85
2023-05-17T17:31:09.463Z,9.64
2023-05-17T17:33:36.556Z,9.68
2023-05-17T17:36:03.757Z,9.65
2023-05-17T17:38:32.144Z,9.48
2023-05-17T17:40:58.778Z,9.59
2023-05-17T17:43:26.766Z,9.50
2023-05-17T17:45:53.461Z,9.51
2023-05-17T17:48:20.215Z,9.41
2023-05-17T17:50:46.853Z,9.28
2023-05-17T17:53:14.046Z,9.27
2023-05-17T17:55:40.942Z,9.31
2023-05-17T17:58:08.840Z,9.16
2023-05-17T18:00:35.605Z,9.27
2023-05-17T18:03:02.467Z,9.11
2023-05-17T18:05:29.211Z,9.16
2023-05-17T18:07:55.886Z,9.15
2023-05-17T18:10:22.516Z,9.02
2023-05-17T18:12:51.689Z,9.10
2023-05-17T18:15:18.908Z,8.94
2023-05-17T18:17:46.037Z,8.91
2023-05-17T18:20:12.757Z,8.93
2023-05-17T18:22:39.420Z,8.80
2023-05-17T18:25:07.708Z,8.90
2023-05-17T18:27:35.207Z,8.75
2023-05-17T18:30:03.273Z,8.78
2023-05-17T18:32:30.124Z,8.74
2023-05-17T18:34:56.906Z,8.68
2023-05-17T18:37:24.732Z,8.81
2023-05-17T18:39:51.486Z,8.63
2023-05-17T18:42:18.489Z,8.73
2023-05-17T18:44:45.161Z,8.66
2023-05-17T18:47:12.093Z,8.59
2023-05-17T18:49:41.937Z,8.69
2023-05-17T18:52:09.982Z,8.50
2023-05-17T18:54:38.514Z,8.58
2023-05-17T18:57:05.529Z,8.49
2023-05-17T18:59:33.169Z,8.42
2023-05-17T19:02:00.590Z,8.46
2023-05-17T19:04:28.599Z,8.34
2023-05-17T19:06:57.634Z,8.45
2023-05-17T19:09:25.622Z,8.30
2023-05-17T19:11:53.512Z,8.38
2023-05-17T19:14:20.155Z,8.39
2023-05-17T19:16:48.244Z,8.30
2023-05-17T19:19:15.141Z,8.37
2023-05-17T19:21:41.944Z,8.24
2023-05-17T19:24:08.643Z,8.25
2023-05-17T19:26:35.309Z,8.21
2023-05-17T19:29:03.008Z,8.10
2023-05-17T19:31:29.714Z,8.21
2023-05-17T19:33:58.297Z,8.06
2023-05-17T19:36:25.874Z,8.10
2023-05-17T19:38:52.678Z,8.00
2023-05-17T19:41:19.597Z,7.83
2023-05-17T19:43:46.241Z,7.82
2023-05-17T19:46:12.948Z,7.54
2023-05-17T19:48:39.982Z,7.61
2023-05-17T19:51:06.765Z,7.43
2023-05-17T19:53:50.686Z,7.29
2023-05-17T19:56:19.256Z,7.32
2023-05-17T19:58:46.117Z,7.07
2023-05-17T20:01:12.846Z,7.14
2023-05-17T20:03:40.635Z,7.01
2023-05-17T20:06:09.571Z,6.91
2023-05-17T20:08:36.385Z,7.01
2023-05-17T20:11:04.533Z,6.85
2023-05-17T20:13:31.519Z,6.87
2023-05-17T20:15:58.223Z,6.82
2023-05-17T20:18:27.660Z,6.68
2023-05-17T20:20:56.028Z,6.78
2023-05-17T20:23:23.122Z,6.65
2023-05-17T20:25:50.951Z,6.66
2023-05-17T20:28:17.772Z,6.69
2023-05-17T20:30:45.607Z,6.53
2023-05-17T20:33:12.362Z,6.59
2023-05-17T20:35:39.078Z,6.44
2023-05-17T20:38:07.013Z,6.35
2023-05-17T20:40:34.972Z,6.43
2023-05-17T20:43:01.625Z,6.26
2023-05-17T20:45:30.908Z,6.19
2023-05-17T20:47:57.959Z,6.27
2023-05-17T20:50:24.815Z,6.09
2023-05-17T20:52:52.394Z,6.11
2023-05-17T20:55:19.172Z,6.13
2023-05-17T20:57:46.912Z,5.97
2023-05-17T21:00:16.864Z,6.02
2023-05-17T21:02:43.723Z,5.95
2023-05-17T21:05:10.914Z,5.82
2023-05-17T21:07:41.747Z,5.87
2023-05-17T21:10:09.533Z,5.88
2023-05-17T21:12:36.344Z,5.74
2023-05-17T21:17:50.441Z,5.75
2023-05-17T21:20:17.739Z,5.72
2023-05-17T21:22:45.520Z,5.83
2023-05-17T21:25:12.226Z,5.67
2023-05-17T21:27:40.363Z,5.64
2023-05-17T21:30:07.740Z,5.68
2023-05-17T21:32:35.943Z,5.45
2023-05-17T21:35:02.850Z,5.45
2023-05-17T21:37:29.615Z,5.54
2023-05-17T21:39:56.365Z,5.37
2023-05-17T21:42:23.032Z,5.32
2023-05-17T21:44:49.842Z,5.46
2023-05-17T21:47:17.783Z,5.30
2023-05-17T21:49:44.545Z,5.34
2023-05-17T21:52:11.578Z,5.34
2023-05-17T21:54:38.368Z,5.17
2023-05-17T21:57:05.197Z,5.11
2023-05-17T21:59:33.117Z,5.26
2023-05-17T22:02:00.024Z,5.06
2023-05-17T22:04:27.311Z,4.96
2023-05-17T22:06:57.005Z,5.06
2023-05-17T22:09:23.721Z,4.97
2023-05-17T22:11:51.718Z,4.93
2023-05-17T22:14:19.195Z,5.04
2023-05-17T22:16:47.043Z,4.87
2023-05-17T22:19:13.925Z,4.71
2023-05-17T22:21:40.772Z,4.88
2023-05-17T22:24:07.707Z,4.68
2023-05-17T22:26:34.339Z,4.63
2023-05-17T22:29:01.355Z,4.71
2023-05-17T22:31:28.157Z,4.49
2023-05-17T22:33:55.254Z,4.44
2023-05-17T22:36:24.877Z,4.61
2023-05-17T22:38:52.862Z,4.44
2023-05-17T22:41:19.527Z,4.44
2023-05-17T22:43:47.456Z,4.50
2023-05-17T22:46:15.597Z,4.23
2023-05-17T22:48:42.285Z,4.34
2023-05-17T22:51:08.981Z,4.33
2023-05-17T22:53:36.146Z,4.26
2023-05-17T22:56:03.348Z,4.38
2023-05-17T22:58:30.002Z,4.31
2023-05-17T23:00:57.954Z,4.14
2023-05-17T23:03:24.756Z,4.28
2023-05-17T23:06:02.062Z,4.17
2023-05-17T23:08:32.573Z,3.96
2023-05-17T23:10:59.281Z,4.12
2023-05-17T23:13:27.402Z,3.78
2023-05-17T23:15:54.060Z,3.80
2023-05-17T23:18:21.158Z,3.94
2023-05-17T23:20:48.885Z,3.83
2023-05-17T23:23:16.136Z,3.93
2023-05-17T23:25:44.795Z,3.86
2023-05-17T23:28:11.658Z,3.74
2023-05-17T23:30:41.133Z,3.89
2023-05-17T23:33:08.244Z,3.66
2023-05-17T23:35:36.051Z,3.66
2023-05-17T23:38:04.176Z,3.68
2023-05-17T23:40:32.448Z,3.51
2023-05-17T23:42:59.115Z,3.65
2023-05-17T23:45:27.020Z,3.56
2023-05-17T23:47:54.040Z,3.47
2023-05-17T23:50:22.002Z,3.64
2023-05-17T23:52:49.051Z,3.45
2023-05-17T23:55:17.566Z,3.45
2023-05-17T23:57:44.270Z,3.53
